createdAt,value
2023-03-24T00:00:04.201Z,100.00
2023-03-24T00:01:03.487Z,100.00
2023-03-24T00:02:03.439Z,100.00
2023-03-24T00:03:03.569Z,100.00
2023-03-24T00:04:03.503Z,100.00
2023-03-24T00:05:03.379Z,100.00
2023-03-24T00:06:03.399Z,100.00
2023-03-24T00:07:03.405Z,100.00
2023-03-24T00:08:04.667Z,100.00
2023-03-24T00:09:03.347Z,100.00
2023-03-24T00:10:03.323Z,100.00
2023-03-24T00:11:03.317Z,100.00
2023-03-24T00:12:03.296Z,100.00
2023-03-24T00:13:03.307Z,100.00
2023-03-24T00:14:03.273Z,100.00
2023-03-24T00:15:03.065Z,100.00
2023-03-24T00:16:03.115Z,100.00
2023-03-24T00:17:02.709Z,100.00
2023-03-24T00:18:03.256Z,100.00
2023-03-24T00:19:03.219Z,100.00
2023-03-24T00:20:03.030Z,100.00
2023-03-24T00:21:03.022Z,100.00
2023-03-24T00:22:03.020Z,100.00
2023-03-24T00:23:03.151Z,100.00
2023-03-24T00:24:03.185Z,100.00
2023-03-24T00:25:03.040Z,100.00
2023-03-24T00:26:03.083Z,100.00
2023-03-24T00:27:03.765Z,100.00
2023-03-24T00:28:02.988Z,100.00
2023-03-24T00:29:03.025Z,100.00
2023-03-24T00:30:03.056Z,100.00
2023-03-24T00:31:03.795Z,100.00
2023-03-24T00:32:03.713Z,100.00
2023-03-24T00:33:03.060Z,100.00
2023-03-24T00:34:03.663Z,100.00
2023-03-24T00:35:02.988Z,100.00
2023-03-24T00:36:02.991Z,100.00
2023-03-24T00:37:02.958Z,100.00
2023-03-24T00:38:02.979Z,100.00
2023-03-24T00:39:02.934Z,100.00
2023-03-24T00:40:02.916Z,100.00
2023-03-24T00:41:02.925Z,100.00
2023-03-24T00:42:02.901Z,100.00
2023-03-24T00:43:02.876Z,100.00
2023-03-24T00:44:02.867Z,100.00
2023-03-24T00:45:02.862Z,100.00
2023-03-24T00:46:03.568Z,100.00
2023-03-24T00:47:02.930Z,100.00
2023-03-24T00:48:02.866Z,100.00
2023-03-24T00:49:03.528Z,100.00
2023-03-24T00:50:02.778Z,100.00
2023-03-24T00:51:02.755Z,100.00
2023-03-24T00:52:02.801Z,100.00
2023-03-24T00:53:02.749Z,100.00
2023-03-24T00:54:02.752Z,100.00
2023-03-24T00:55:01.982Z,100.00
2023-03-24T00:56:02.693Z,100.00
2023-03-24T00:57:02.742Z,100.00
2023-03-24T00:58:02.706Z,100.00
2023-03-24T00:59:02.753Z,100.00
2023-03-24T01:00:02.672Z,100.00
2023-03-24T01:01:02.640Z,99.89
2023-03-24T01:02:03.352Z,99.65
2023-03-24T01:03:02.880Z,99.25
2023-03-24T01:04:02.611Z,98.79
2023-03-24T01:05:03.256Z,98.51
2023-03-24T01:06:04.027Z,97.93
2023-03-24T01:07:02.594Z,97.70
2023-03-24T01:08:02.545Z,97.44
2023-03-24T01:09:03.249Z,96.85
2023-03-24T01:10:02.519Z,96.66
2023-03-24T01:11:02.480Z,96.85
2023-03-24T01:12:02.478Z,96.46
2023-03-24T01:13:02.488Z,96.60
2023-03-24T01:14:02.474Z,96.36
2023-03-24T01:15:02.438Z,96.62
2023-03-24T01:16:02.425Z,96.45
2023-03-24T01:17:02.473Z,96.26
2023-03-24T01:18:01.687Z,96.40
2023-03-24T01:19:02.391Z,96.51
2023-03-24T01:20:02.398Z,96.49
2023-03-24T01:21:02.327Z,96.46
2023-03-24T01:22:02.350Z,96.41
2023-03-24T01:23:02.342Z,95.92
2023-03-24T01:24:02.314Z,95.99
2023-03-24T01:25:02.061Z,96.33
2023-03-24T01:26:02.076Z,95.62
2023-03-24T01:27:02.264Z,95.74
2023-03-24T01:28:02.252Z,96.05
2023-03-24T01:29:02.265Z,95.99
2023-03-24T01:30:02.071Z,95.60
2023-03-24T01:31:02.199Z,95.31
2023-03-24T01:32:02.158Z,95.35
2023-03-24T01:33:01.613Z,95.36
2023-03-24T01:34:02.069Z,95.39
2023-03-24T01:35:02.083Z,95.26
2023-03-24T01:36:02.178Z,95.05
2023-03-24T01:37:02.183Z,95.04
2023-03-24T01:38:02.179Z,95.18
2023-03-24T01:39:02.188Z,95.43
2023-03-24T01:40:02.762Z,95.67
2023-03-24T01:41:02.187Z,95.63
2023-03-24T01:42:02.782Z,95.40
2023-03-24T01:43:02.780Z,95.24
2023-03-24T01:44:02.763Z,95.03
2023-03-24T01:45:02.739Z,94.63
2023-03-24T01:46:02.727Z,93.98
2023-03-24T01:47:02.747Z,93.90
2023-03-24T01:48:02.733Z,94.17
2023-03-24T01:49:01.964Z,94.14
2023-03-24T01:50:02.684Z,94.00
2023-03-24T01:51:02.669Z,93.88
2023-03-24T01:52:02.666Z,93.51
2023-03-24T01:53:02.635Z,93.53
2023-03-24T01:54:01.921Z,93.50
2023-03-24T01:55:01.885Z,93.56
2023-03-24T01:56:01.891Z,93.25
2023-03-24T01:57:01.876Z,93.09
2023-03-24T01:58:01.867Z,92.74
2023-03-24T01:59:01.829Z,92.67
2023-03-24T02:00:01.886Z,92.75
2023-03-24T02:01:01.865Z,92.73
2023-03-24T02:02:01.771Z,92.12
2023-03-24T02:03:01.800Z,91.89
2023-03-24T02:04:01.778Z,91.69
2023-03-24T02:05:01.754Z,91.51
2023-03-24T02:06:01.746Z,91.56
2023-03-24T02:07:01.696Z,91.41
2023-03-24T02:08:01.706Z,91.76
2023-03-24T02:09:01.701Z,91.07
2023-03-24T02:10:01.717Z,90.99
2023-03-24T02:11:01.669Z,91.30
2023-03-24T02:12:01.641Z,91.65
2023-03-24T02:13:02.314Z,91.45
2023-03-24T02:14:01.628Z,91.41
2023-03-24T02:15:01.616Z,91.15
2023-03-24T02:16:01.632Z,91.09
2023-03-24T02:17:01.559Z,90.27
2023-03-24T02:18:02.300Z,90.49
2023-03-24T02:19:01.572Z,91.05
2023-03-24T02:20:01.562Z,91.10
2023-03-24T02:21:01.534Z,91.56
2023-03-24T02:22:01.492Z,91.61
2023-03-24T02:23:01.522Z,91.87
2023-03-24T02:24:01.487Z,92.14
2023-03-24T02:25:01.697Z,92.48
2023-03-24T02:26:01.477Z,92.04
2023-03-24T02:27:02.149Z,91.91
2023-03-24T02:28:01.127Z,91.78
2023-03-24T02:29:01.429Z,91.91
2023-03-24T02:30:00.808Z,91.89
2023-03-24T02:31:01.390Z,92.66
2023-03-24T02:32:01.435Z,93.06
2023-03-24T02:33:01.176Z,93.51
2023-03-24T02:34:01.353Z,93.68
2023-03-24T02:35:01.352Z,93.70
2023-03-24T02:36:00.675Z,94.38
2023-03-24T02:37:00.675Z,94.89
2023-03-24T02:38:00.588Z,95.21
2023-03-24T02:39:00.750Z,95.72
2023-03-24T02:40:01.271Z,95.81
2023-03-24T02:41:00.828Z,95.82
2023-03-24T02:42:01.996Z,95.52
2023-03-24T02:43:01.240Z,95.97
2023-03-24T02:44:01.235Z,96.37
2023-03-24T02:45:01.198Z,96.22
2023-03-24T02:46:01.306Z,96.79
2023-03-24T02:47:01.168Z,97.10
2023-03-24T02:48:01.173Z,97.08
2023-03-24T02:49:01.159Z,97.02
2023-03-24T02:50:01.173Z,97.05
2023-03-24T02:51:01.866Z,97.00
2023-03-24T02:52:01.118Z,97.37
2023-03-24T02:53:01.316Z,97.68
2023-03-24T02:54:01.078Z,97.62
2023-03-24T02:55:01.813Z,97.41
2023-03-24T02:56:01.046Z,97.36
2023-03-24T02:57:01.793Z,97.47
2023-03-24T02:58:01.062Z,97.67
2023-03-24T02:59:01.005Z,97.89
2023-03-24T03:00:01.075Z,97.56
2023-03-24T03:01:00.983Z,97.58
2023-03-24T03:02:01.649Z,97.74
2023-03-24T03:03:00.965Z,97.99
2023-03-24T03:04:00.979Z,98.07
2023-03-24T03:05:00.968Z,97.98
2023-03-24T03:06:01.176Z,98.13
2023-03-24T03:07:00.883Z,98.45
2023-03-24T03:08:00.874Z,98.69
2023-03-24T03:09:00.876Z,98.75
2023-03-24T03:10:01.532Z,98.85
2023-03-24T03:11:00.833Z,98.99
2023-03-24T03:12:00.823Z,98.92
2023-03-24T03:13:00.787Z,98.70
2023-03-24T03:14:00.794Z,98.68
2023-03-24T03:15:00.784Z,98.66
2023-03-24T03:16:00.789Z,98.53
2023-03-24T03:17:00.753Z,98.20
2023-03-24T03:18:00.094Z,98.09
2023-03-24T03:19:00.769Z,98.12
2023-03-24T03:20:00.718Z,98.26
2023-03-24T03:21:00.714Z,98.65
2023-03-24T03:22:00.688Z,98.84
2023-03-24T03:23:00.665Z,99.05
2023-03-24T03:24:00.676Z,99.40
2023-03-24T03:25:00.652Z,99.32
2023-03-24T03:26:00.642Z,99.54
2023-03-24T03:27:00.630Z,99.83
2023-03-24T03:28:00.644Z,100.00
2023-03-24T03:29:00.646Z,100.00
2023-03-24T03:30:00.588Z,100.00
2023-03-24T03:31:00.598Z,100.00
2023-03-24T03:32:00.594Z,100.00
2023-03-24T03:33:00.621Z,100.00
2023-03-24T03:33:59.797Z,100.00
2023-03-24T03:35:00.518Z,100.00
2023-03-24T03:36:00.532Z,100.00
2023-03-24T03:37:00.489Z,100.00
2023-03-24T03:38:00.712Z,100.00
2023-03-24T03:39:00.473Z,100.00
2023-03-24T03:40:00.459Z,100.00
2023-03-24T03:41:00.424Z,100.00
2023-03-24T03:42:00.181Z,100.00
2023-03-24T03:43:00.415Z,100.00
2023-03-24T03:44:00.191Z,100.00
2023-03-24T03:44:59.853Z,100.00
2023-03-24T03:46:00.406Z,100.00
2023-03-24T03:47:00.369Z,100.00
2023-03-24T03:48:00.234Z,100.00
2023-03-24T03:49:00.183Z,100.00
2023-03-24T03:49:59.585Z,100.00
2023-03-24T03:51:10.741Z,100.00
2023-03-24T03:52:01.286Z,100.00
2023-03-24T03:53:00.250Z,100.00
2023-03-24T03:54:00.270Z,100.00
2023-03-24T03:55:00.239Z,100.00
2023-03-24T03:56:00.901Z,100.00
2023-03-24T03:57:00.339Z,100.00
2023-03-24T03:57:59.563Z,100.00
2023-03-24T03:59:00.206Z,100.00
2023-03-24T04:00:00.170Z,100.00
2023-03-24T04:00:59.654Z,100.00
2023-03-24T04:02:00.196Z,100.00
2023-03-24T04:03:00.914Z,100.00
2023-03-24T04:04:00.180Z,100.00
2023-03-24T04:05:06.404Z,100.00
2023-03-24T04:06:01.092Z,100.00
2023-03-24T04:06:59.880Z,100.00
2023-03-24T04:08:00.094Z,100.00
2023-03-24T04:09:00.053Z,100.00
2023-03-24T04:10:00.032Z,100.00
2023-03-24T04:11:01.028Z,100.00
2023-03-24T04:12:00.015Z,100.00
2023-03-24T04:13:00.712Z,100.00
2023-03-24T04:14:00.714Z,100.00
2023-03-24T04:15:00.652Z,100.00
2023-03-24T04:15:59.966Z,100.00
2023-03-24T04:16:59.960Z,100.00
2023-03-24T04:17:59.957Z,100.00
2023-03-24T04:19:00.607Z,100.00
2023-03-24T04:19:59.902Z,100.00
2023-03-24T04:20:59.882Z,100.00
2023-03-24T04:21:59.877Z,100.00
2023-03-24T04:22:59.861Z,100.00
2023-03-24T04:23:59.864Z,100.00
2023-03-24T04:24:59.835Z,100.00
2023-03-24T04:26:00.054Z,100.00
2023-03-24T04:26:59.806Z,100.00
2023-03-24T04:27:59.781Z,100.00
2023-03-24T04:28:59.761Z,100.00
2023-03-24T04:29:59.811Z,100.00
2023-03-24T04:30:59.755Z,100.00
2023-03-24T04:31:59.746Z,100.00
2023-03-24T04:32:59.735Z,100.00
2023-03-24T04:33:59.686Z,100.00
2023-03-24T04:34:59.700Z,100.00
2023-03-24T04:35:59.686Z,100.00
2023-03-24T04:36:59.663Z,100.00
2023-03-24T04:37:59.661Z,100.00
2023-03-24T04:38:59.610Z,100.00
2023-03-24T04:39:59.620Z,100.00
2023-03-24T04:40:59.625Z,100.00
2023-03-24T04:41:59.589Z,100.00
2023-03-24T04:42:59.580Z,100.00
2023-03-24T04:43:59.570Z,100.00
2023-03-24T04:44:59.554Z,100.00
2023-03-24T04:46:00.282Z,100.00
2023-03-24T04:46:59.534Z,100.00
2023-03-24T04:47:59.288Z,100.00
2023-03-24T04:48:59.477Z,100.00
2023-03-24T04:49:59.482Z,100.00
2023-03-24T04:50:59.243Z,100.00
2023-03-24T04:51:59.233Z,100.00
2023-03-24T04:52:59.229Z,100.00
2023-03-24T04:53:59.229Z,100.00
2023-03-24T04:54:59.423Z,100.00
2023-03-24T04:55:59.421Z,100.00
2023-03-24T04:56:59.059Z,100.00
2023-03-24T04:57:59.381Z,100.00
2023-03-24T04:58:59.357Z,100.00
2023-03-24T04:59:59.244Z,100.00
2023-03-24T05:01:00.044Z,100.00
2023-03-24T05:01:59.321Z,100.00
2023-03-24T05:02:59.361Z,100.00
2023-03-24T05:03:59.042Z,100.00
2023-03-24T05:04:59.279Z,100.00
2023-03-24T05:05:59.924Z,100.00
2023-03-24T05:07:00.242Z,100.00
2023-03-24T05:07:59.244Z,100.00
2023-03-24T05:08:59.288Z,100.00
2023-03-24T05:09:58.718Z,100.00
2023-03-24T05:10:58.711Z,100.00
2023-03-24T05:12:01.816Z,100.00
2023-03-24T05:12:59.180Z,100.00
2023-03-24T05:13:59.876Z,100.00
2023-03-24T05:14:59.120Z,100.00
2023-03-24T05:15:59.187Z,100.00
2023-03-24T05:16:59.112Z,100.00
2023-03-24T05:17:59.120Z,100.00
2023-03-24T05:18:59.113Z,100.00
2023-03-24T05:19:59.050Z,100.00
2023-03-24T05:20:59.060Z,100.00
2023-03-24T05:21:59.068Z,100.00
2023-03-24T05:22:59.026Z,100.00
2023-03-24T05:23:59.016Z,100.00
2023-03-24T05:24:59.001Z,100.00
2023-03-24T05:25:58.389Z,100.00
2023-03-24T05:26:58.978Z,100.00
2023-03-24T05:27:59.013Z,100.00
2023-03-24T05:28:59.007Z,100.00
2023-03-24T05:29:58.905Z,100.00
2023-03-24T05:30:58.996Z,100.00
2023-03-24T05:31:58.908Z,100.00
2023-03-24T05:32:58.915Z,100.00
2023-03-24T05:33:58.887Z,100.00
2023-03-24T05:34:58.843Z,100.00
2023-03-24T05:35:58.878Z,100.00
2023-03-24T05:36:58.864Z,100.00
2023-03-24T05:37:58.834Z,100.00
2023-03-24T05:38:58.817Z,100.00
2023-03-24T05:39:58.277Z,100.00
2023-03-24T05:40:58.786Z,100.00
2023-03-24T05:41:58.770Z,100.00
2023-03-24T05:42:58.764Z,100.00
2023-03-24T05:43:58.747Z,100.00
2023-03-24T05:44:58.706Z,100.00
2023-03-24T05:45:58.745Z,100.00
2023-03-24T05:46:58.707Z,100.00
2023-03-24T05:47:58.720Z,100.00
2023-03-24T05:48:58.722Z,100.00
2023-03-24T05:49:58.638Z,100.00
2023-03-24T05:50:58.648Z,100.00
2023-03-24T05:51:58.648Z,100.00
2023-03-24T05:52:58.620Z,100.00
2023-03-24T05:53:59.286Z,100.00
2023-03-24T05:54:58.584Z,100.00
2023-03-24T05:55:58.270Z,100.00
2023-03-24T05:56:58.607Z,100.00
2023-03-24T05:58:00.255Z,100.00
2023-03-24T05:58:58.538Z,100.00
2023-03-24T05:59:58.292Z,100.00
2023-03-24T06:00:59.188Z,100.00
2023-03-24T06:01:58.645Z,100.00
2023-03-24T06:02:57.920Z,100.00
2023-03-24T06:03:57.884Z,100.00
2023-03-24T06:04:57.750Z,100.00
2023-03-24T06:05:57.905Z,100.00
2023-03-24T06:06:58.425Z,100.00
2023-03-24T06:07:57.965Z,100.00
2023-03-24T06:08:57.987Z,100.00
2023-03-24T06:09:58.418Z,100.00
2023-03-24T06:10:58.376Z,100.00
2023-03-24T06:11:57.638Z,100.00
2023-03-24T06:12:57.623Z,100.00
2023-03-24T06:13:58.115Z,100.00
2023-03-24T06:14:58.311Z,100.00
2023-03-24T06:15:57.942Z,100.00
2023-03-24T06:16:58.296Z,100.00
2023-03-24T06:17:58.306Z,100.00
2023-03-24T06:18:58.265Z,100.00
2023-03-24T06:19:58.251Z,100.00
2023-03-24T06:20:58.973Z,100.00
2023-03-24T06:21:58.943Z,100.00
2023-03-24T06:22:58.948Z,100.00
2023-03-24T06:23:58.934Z,100.00
2023-03-24T06:24:58.930Z,100.00
2023-03-24T06:25:58.917Z,100.00
2023-03-24T06:26:58.885Z,100.00
2023-03-24T06:27:58.146Z,100.00
2023-03-24T06:28:58.167Z,100.00
2023-03-24T06:29:58.871Z,100.00
2023-03-24T06:30:59.026Z,100.00
2023-03-24T06:31:58.810Z,100.00
2023-03-24T06:32:58.144Z,100.00
2023-03-24T06:33:58.069Z,100.00
2023-03-24T06:34:57.339Z,100.00
2023-03-24T06:35:58.040Z,100.00
2023-03-24T06:36:57.294Z,100.00
2023-03-24T06:37:58.028Z,100.00
2023-03-24T06:38:58.015Z,100.00
2023-03-24T06:39:58.045Z,100.00
2023-03-24T06:40:57.953Z,100.00
2023-03-24T06:41:57.978Z,100.00
2023-03-24T06:42:57.953Z,100.00
2023-03-24T06:43:57.932Z,100.00
2023-03-24T06:44:57.930Z,100.00
2023-03-24T06:45:58.873Z,100.00
2023-03-24T06:46:57.890Z,100.00
2023-03-24T06:47:58.043Z,100.00
2023-03-24T06:48:57.858Z,100.00
2023-03-24T06:49:57.853Z,100.00
2023-03-24T06:50:57.820Z,100.00
2023-03-24T06:51:58.535Z,100.00
2023-03-24T06:52:57.075Z,100.00
2023-03-24T06:53:57.807Z,100.00
2023-03-24T06:54:57.785Z,100.00
2023-03-24T06:55:57.744Z,100.00
2023-03-24T06:56:57.789Z,100.00
2023-03-24T06:57:57.741Z,100.00
2023-03-24T06:58:57.739Z,100.00
2023-03-24T06:59:57.729Z,100.00
2023-03-24T07:00:56.986Z,100.00
2023-03-24T07:01:57.732Z,100.00
2023-03-24T07:02:57.986Z,100.00
2023-03-24T07:03:57.405Z,100.00
2023-03-24T07:04:57.648Z,100.00
2023-03-24T07:05:57.632Z,100.00
2023-03-24T07:07:19.167Z,100.00
2023-03-24T07:08:57.366Z,100.00
2023-03-24T07:09:57.332Z,100.00
2023-03-24T07:10:57.539Z,100.00
2023-03-24T07:11:57.346Z,100.00
2023-03-24T07:12:57.555Z,100.00
2023-03-24T07:13:57.525Z,100.00
2023-03-24T07:14:57.342Z,100.00
2023-03-24T07:15:57.370Z,100.00
2023-03-24T07:16:56.771Z,100.00
2023-03-24T07:17:57.499Z,100.00
2023-03-24T07:18:57.502Z,100.00
2023-03-24T07:19:56.917Z,100.00
2023-03-24T07:20:57.417Z,100.00
2023-03-24T07:21:57.412Z,100.00
2023-03-24T07:22:57.357Z,100.00
2023-03-24T07:23:57.355Z,100.00
2023-03-24T07:24:56.882Z,100.00
2023-03-24T07:25:58.097Z,100.00
2023-03-24T07:26:58.081Z,100.00
2023-03-24T07:27:57.363Z,100.00
2023-03-24T07:28:58.053Z,100.00
2023-03-24T07:29:58.087Z,100.00
2023-03-24T07:30:57.546Z,100.00
2023-03-24T07:31:58.024Z,100.00
2023-03-24T07:32:57.407Z,100.00
2023-03-24T07:33:59.052Z,100.00
2023-03-24T07:34:57.249Z,100.00
2023-03-24T07:35:57.660Z,100.00
2023-03-24T07:36:57.192Z,100.00
2023-03-24T07:37:57.200Z,100.00
2023-03-24T07:38:57.191Z,100.00
2023-03-24T07:39:57.185Z,100.00
2023-03-24T07:40:57.161Z,100.00
2023-03-24T07:41:57.155Z,100.00
2023-03-24T07:42:57.131Z,100.00
2023-03-24T07:43:57.119Z,100.00
2023-03-24T07:44:57.241Z,100.00
2023-03-24T07:45:57.164Z,100.00
2023-03-24T07:46:56.366Z,100.00
2023-03-24T07:47:57.170Z,100.00
2023-03-24T07:48:59.447Z,100.00
2023-03-24T07:49:58.034Z,100.00
2023-03-24T07:50:57.041Z,100.00
2023-03-24T07:51:56.983Z,100.00
2023-03-24T07:52:59.845Z,100.00
2023-03-24T07:53:56.988Z,100.00
2023-03-24T07:54:56.374Z,100.00
2023-03-24T07:55:56.964Z,100.00
2023-03-24T07:56:56.379Z,100.00
2023-03-24T07:57:56.927Z,100.00
2023-03-24T07:58:56.945Z,100.00
2023-03-24T07:59:56.183Z,100.00
2023-03-24T08:00:56.888Z,100.00
2023-03-24T08:01:59.800Z,100.00
2023-03-24T08:02:57.200Z,100.00
2023-03-24T08:03:56.966Z,100.00
2023-03-24T08:04:56.104Z,100.00
2023-03-24T08:05:56.820Z,100.00
2023-03-24T08:06:56.773Z,100.00
2023-03-24T08:07:56.383Z,100.00
2023-03-24T08:08:56.789Z,100.00
2023-03-24T08:09:56.764Z,100.00
2023-03-24T08:10:56.748Z,100.00
2023-03-24T08:12:55.989Z,100.00
2023-03-24T08:13:56.709Z,100.00
2023-03-24T08:14:56.711Z,100.00
2023-03-24T08:15:56.396Z,100.00
2023-03-24T08:16:57.013Z,100.00
2023-03-24T08:17:56.898Z,100.00
2023-03-24T08:18:56.384Z,100.00
2023-03-24T08:20:00.435Z,100.00
2023-03-24T08:20:57.388Z,100.00
2023-03-24T08:21:56.595Z,100.00
2023-03-24T08:22:57.252Z,100.00
2023-03-24T08:23:55.947Z,100.00
2023-03-24T08:24:56.578Z,100.00
2023-03-24T08:25:56.552Z,100.00
2023-03-24T08:26:56.035Z,100.00
2023-03-24T08:27:56.524Z,100.00
2023-03-24T08:28:55.776Z,100.00
2023-03-24T08:29:56.198Z,100.00
2023-03-24T08:30:56.506Z,100.00
2023-03-24T08:31:56.166Z,100.00
2023-03-24T08:32:56.496Z,100.00
2023-03-24T08:33:56.226Z,100.00
2023-03-24T08:34:56.256Z,100.00
2023-03-24T08:35:56.420Z,100.00
2023-03-24T08:36:56.333Z,100.00
2023-03-24T08:37:56.391Z,100.00
2023-03-24T08:38:57.093Z,100.00
2023-03-24T08:39:56.385Z,100.00
2023-03-24T08:40:56.331Z,100.00
2023-03-24T08:41:57.039Z,100.00
2023-03-24T08:42:56.355Z,100.00
2023-03-24T08:43:56.294Z,100.00
2023-03-24T08:44:56.304Z,100.00
2023-03-24T08:45:57.020Z,100.00
2023-03-24T08:46:56.984Z,100.00
2023-03-24T08:47:57.004Z,100.00
2023-03-24T08:48:56.993Z,100.00
2023-03-24T08:49:56.949Z,100.00
2023-03-24T08:50:56.216Z,100.00
2023-03-24T08:51:56.940Z,100.00
2023-03-24T08:52:56.715Z,100.00
2023-03-24T08:53:56.170Z,100.00
2023-03-24T08:54:56.154Z,100.00
2023-03-24T08:55:56.140Z,100.00
2023-03-24T08:56:56.191Z,100.00
2023-03-24T08:57:56.090Z,100.00
2023-03-24T08:58:55.358Z,100.00
2023-03-24T08:59:56.075Z,100.00
2023-03-24T09:00:55.416Z,100.00
2023-03-24T09:01:56.796Z,100.00
2023-03-24T09:02:56.077Z,100.00
2023-03-24T09:03:56.028Z,100.00
2023-03-24T09:04:56.712Z,100.00
2023-03-24T09:05:56.917Z,100.00
2023-03-24T09:06:55.241Z,100.00
2023-03-24T09:07:56.199Z,100.00
2023-03-24T09:08:55.952Z,100.00
2023-03-24T09:09:55.936Z,100.00
2023-03-24T09:10:55.935Z,100.00
2023-03-24T09:11:55.910Z,100.00
2023-03-24T09:12:55.873Z,100.00
2023-03-24T09:13:56.617Z,100.00
2023-03-24T09:14:55.135Z,100.00
2023-03-24T09:15:55.871Z,100.00
2023-03-24T09:16:55.116Z,100.00
2023-03-24T09:17:55.875Z,100.00
2023-03-24T09:18:56.546Z,100.00
2023-03-24T09:19:55.807Z,100.00
2023-03-24T09:20:55.785Z,100.00
2023-03-24T09:21:55.765Z,100.00
2023-03-24T09:22:55.029Z,100.00
2023-03-24T09:23:55.427Z,100.00
2023-03-24T09:24:55.436Z,100.00
2023-03-24T09:25:55.732Z,100.00
2023-03-24T09:26:55.707Z,99.95
2023-03-24T09:27:55.429Z,99.96
2023-03-24T09:28:55.441Z,99.75
2023-03-24T09:29:55.433Z,99.79
2023-03-24T09:30:55.486Z,99.49
2023-03-24T09:31:55.446Z,99.39
2023-03-24T09:32:54.981Z,99.64
2023-03-24T09:33:55.605Z,100.00
2023-03-24T09:34:55.606Z,100.00
2023-03-24T09:35:56.524Z,100.00
2023-03-24T09:36:55.562Z,100.00
2023-03-24T09:37:55.570Z,100.00
2023-03-24T09:38:55.460Z,100.00
2023-03-24T09:39:55.487Z,100.00
2023-03-24T09:40:55.777Z,100.00
2023-03-24T09:41:56.272Z,100.00
2023-03-24T09:42:56.206Z,100.00
2023-03-24T09:43:55.487Z,100.00
2023-03-24T09:44:56.192Z,100.00
2023-03-24T09:45:56.168Z,100.00
2023-03-24T09:46:55.495Z,100.00
2023-03-24T09:47:55.478Z,100.00
2023-03-24T09:48:55.423Z,100.00
2023-03-24T09:49:56.161Z,100.00
2023-03-24T09:50:55.377Z,100.00
2023-03-24T09:51:55.518Z,100.00
2023-03-24T09:52:55.415Z,100.00
2023-03-24T09:53:55.342Z,100.00
2023-03-24T09:54:55.330Z,100.00
2023-03-24T09:55:55.320Z,100.00
2023-03-24T09:56:55.390Z,100.00
2023-03-24T09:57:55.261Z,100.00
2023-03-24T09:58:55.283Z,100.00
2023-03-24T09:59:55.271Z,100.00
2023-03-24T10:00:57.112Z,99.77
2023-03-24T10:01:55.250Z,99.67
2023-03-24T10:02:57.434Z,99.47
2023-03-24T10:03:55.210Z,99.51
2023-03-24T10:04:55.199Z,99.63
2023-03-24T10:05:55.214Z,99.68
2023-03-24T10:06:55.157Z,99.84
2023-03-24T10:07:55.149Z,100.00
2023-03-24T10:08:55.118Z,100.00
2023-03-24T10:09:55.117Z,100.00
2023-03-24T10:10:55.104Z,100.00
2023-03-24T10:11:55.107Z,100.00
2023-03-24T10:12:55.083Z,100.00
2023-03-24T10:13:55.056Z,100.00
2023-03-24T10:14:55.064Z,100.00
2023-03-24T10:15:55.141Z,100.00
2023-03-24T10:16:55.020Z,100.00
2023-03-24T10:17:55.070Z,100.00
2023-03-24T10:18:54.269Z,100.00
2023-03-24T10:19:59.718Z,100.00
2023-03-24T10:20:55.248Z,99.90
2023-03-24T10:21:55.628Z,99.59
2023-03-24T10:22:54.984Z,100.00
2023-03-24T10:23:54.931Z,100.00
2023-03-24T10:24:55.132Z,100.00
2023-03-24T10:25:54.914Z,100.00
2023-03-24T10:26:54.882Z,98.92
2023-03-24T10:27:54.872Z,97.85
2023-03-24T10:28:55.101Z,98.41
2023-03-24T10:29:54.854Z,98.35
2023-03-24T10:30:54.835Z,97.84
2023-03-24T10:31:54.827Z,97.74
2023-03-24T10:32:54.926Z,97.24
2023-03-24T10:33:54.764Z,96.28
2023-03-24T10:34:54.519Z,96.13
2023-03-24T10:35:54.793Z,96.63
2023-03-24T10:36:54.497Z,97.21
2023-03-24T10:37:54.500Z,97.33
2023-03-24T10:38:54.501Z,96.38
2023-03-24T10:39:54.494Z,97.07
2023-03-24T10:40:54.716Z,97.76
2023-03-24T10:41:53.983Z,98.16
2023-03-24T10:43:06.728Z,97.92
2023-03-24T10:43:55.764Z,97.07
2023-03-24T10:44:54.040Z,96.20
2023-03-24T10:45:54.678Z,96.10
2023-03-24T10:46:54.085Z,95.93
2023-03-24T10:47:54.649Z,95.60
2023-03-24T10:48:54.605Z,96.21
2023-03-24T10:49:54.578Z,96.00
2023-03-24T10:50:54.196Z,94.95
2023-03-24T10:51:54.240Z,95.36
2023-03-24T10:52:55.286Z,95.56
2023-03-24T10:53:54.488Z,96.31
2023-03-24T10:54:54.310Z,96.85
2023-03-24T10:55:54.496Z,96.75
2023-03-24T10:56:54.512Z,97.20
2023-03-24T10:57:54.393Z,97.11
2023-03-24T10:58:55.178Z,96.78
2023-03-24T10:59:55.129Z,97.04
2023-03-24T11:00:55.177Z,96.24
2023-03-24T11:01:55.160Z,95.92
2023-03-24T11:02:54.503Z,96.64
2023-03-24T11:03:55.120Z,97.17
2023-03-24T11:04:54.360Z,96.46
2023-03-24T11:05:55.116Z,96.54
2023-03-24T11:06:55.063Z,96.10
2023-03-24T11:07:55.042Z,95.44
2023-03-24T11:08:55.022Z,95.27
2023-03-24T11:09:55.041Z,95.56
2023-03-24T11:10:54.948Z,95.68
2023-03-24T11:11:54.275Z,95.40
2023-03-24T11:12:55.008Z,96.10
2023-03-24T11:13:54.244Z,95.64
2023-03-24T11:14:54.215Z,93.60
2023-03-24T11:15:54.938Z,90.48
2023-03-24T11:16:54.305Z,89.16
2023-03-24T11:17:54.225Z,89.97
2023-03-24T11:18:53.526Z,88.43
2023-03-24T11:19:54.845Z,85.79
2023-03-24T11:20:54.158Z,84.83
2023-03-24T11:21:53.544Z,84.38
2023-03-24T11:22:54.121Z,82.79
2023-03-24T11:23:54.126Z,82.44
2023-03-24T11:24:54.783Z,84.49
2023-03-24T11:25:54.076Z,82.44
2023-03-24T11:26:53.542Z,83.99
2023-03-24T11:27:54.725Z,81.53
2023-03-24T11:28:54.038Z,82.19
2023-03-24T11:29:54.004Z,82.17
2023-03-24T11:30:54.041Z,83.02
2023-03-24T11:31:54.013Z,82.91
2023-03-24T11:32:54.079Z,83.81
2023-03-24T11:33:53.970Z,82.58
2023-03-24T11:34:53.312Z,81.88
2023-03-24T11:36:05.066Z,84.60
2023-03-24T11:36:54.987Z,85.11
2023-03-24T11:37:53.909Z,85.60
2023-03-24T11:38:53.899Z,85.67
2023-03-24T11:39:53.166Z,82.58
2023-03-24T11:40:53.886Z,85.16
2023-03-24T11:41:54.540Z,83.59
2023-03-24T11:42:53.844Z,82.26
2023-03-24T11:43:53.837Z,81.77
2023-03-24T11:44:53.792Z,81.66
2023-03-24T11:45:53.838Z,82.62
2023-03-24T11:46:53.840Z,83.22
2023-03-24T11:47:53.571Z,83.61
2023-03-24T11:48:53.560Z,82.19
2023-03-24T11:49:53.569Z,83.05
2023-03-24T11:50:53.553Z,79.79
2023-03-24T11:51:53.732Z,81.71
2023-03-24T11:52:53.730Z,83.56
2023-03-24T11:53:53.570Z,81.42
2023-03-24T11:54:53.578Z,79.62
2023-03-24T11:55:53.580Z,82.22
2023-03-24T11:56:53.711Z,80.85
2023-03-24T11:57:53.658Z,82.13
2023-03-24T11:58:53.578Z,80.02
2023-03-24T11:59:53.617Z,79.57
2023-03-24T12:00:54.565Z,81.14
2023-03-24T12:01:53.095Z,82.87
2023-03-24T12:02:53.770Z,82.65
2023-03-24T12:03:53.620Z,82.07
2023-03-24T12:04:54.268Z,83.10
2023-03-24T12:05:54.420Z,83.18
2023-03-24T12:06:53.532Z,84.37
2023-03-24T12:07:53.752Z,83.80
2023-03-24T12:08:54.216Z,83.81
2023-03-24T12:09:53.475Z,83.75
2023-03-24T12:10:54.088Z,83.24
2023-03-24T12:11:52.729Z,84.28
2023-03-24T12:12:53.441Z,85.31
2023-03-24T12:13:53.426Z,80.55
2023-03-24T12:14:52.728Z,76.66
2023-03-24T12:15:53.409Z,77.98
2023-03-24T12:16:53.138Z,77.65
2023-03-24T12:17:52.731Z,78.23
2023-03-24T12:18:54.028Z,78.35
2023-03-24T12:19:53.568Z,78.25
2023-03-24T12:20:53.305Z,77.04
2023-03-24T12:21:54.000Z,74.11
2023-03-24T12:22:53.307Z,75.71
2023-03-24T12:23:53.299Z,76.02
2023-03-24T12:24:53.272Z,79.54
2023-03-24T12:25:54.085Z,81.54
2023-03-24T12:26:53.390Z,81.35
2023-03-24T12:27:52.504Z,80.20
2023-03-24T12:28:53.224Z,80.64
2023-03-24T12:29:53.212Z,81.03
2023-03-24T12:30:53.175Z,81.30
2023-03-24T12:31:53.910Z,81.93
2023-03-24T12:32:53.202Z,81.94
2023-03-24T12:33:53.142Z,81.63
2023-03-24T12:34:53.143Z,80.21
2023-03-24T12:35:53.143Z,79.80
2023-03-24T12:36:53.108Z,75.77
2023-03-24T12:37:53.100Z,75.50
2023-03-24T12:38:53.070Z,73.02